createdAt,value
2017-04-09T00:00:30.530Z,13.2
2017-04-09T00:01:40.871Z,13.24
2017-04-09T00:02:50.943Z,13.14
2017-04-09T00:04:00.965Z,13.16
2017-04-09T00:05:10.978Z,13.14
2017-04-09T00:06:21.313Z,13.11
2017-04-09T00:07:31.355Z,13.06
2017-04-09T00:08:41.066Z,13.06
2017-04-09T00:09:51.088Z,13.01
2017-04-09T00:11:01.420Z,13.01
2017-04-09T00:12:11.756Z,12.94
2017-04-09T00:13:21.474Z,12.98
2017-04-09T00:14:31.865Z,12.95
2017-04-09T00:15:42.202Z,12.92
2017-04-09T00:16:52.531Z,12.88
2017-04-09T00:18:02.565Z,12.86
2017-04-09T00:19:12.906Z,12.91
2017-04-09T00:20:23.230Z,12.81
2017-04-09T00:21:33.579Z,12.83
2017-04-09T00:22:43.922Z,12.88
2017-04-09T00:23:53.943Z,12.86
2017-04-09T00:25:04.261Z,12.86
2017-04-09T00:26:14.599Z,12.94
2017-04-09T00:27:24.944Z,12.92
2017-04-09T00:28:35.280Z,12.91
2017-04-09T00:29:45.616Z,12.89
2017-04-09T00:30:55.698Z,12.89
2017-04-09T00:32:05.719Z,12.83
2017-04-09T00:33:15.740Z,12.92
2017-04-09T00:34:25.445Z,12.86
2017-04-09T00:35:35.475Z,12.77
2017-04-09T00:36:45.808Z,12.81
2017-04-09T00:37:55.510Z,12.78
2017-04-09T00:39:05.892Z,12.83
2017-04-09T00:40:15.608Z,12.77
2017-04-09T00:41:25.323Z,12.81
2017-04-09T00:42:35.643Z,12.84
2017-04-09T00:43:46.213Z,12.78
2017-04-09T00:44:56.539Z,12.76
2017-04-09T00:46:06.562Z,12.71
2017-04-09T00:47:16.572Z,12.74
2017-04-09T00:48:26.904Z,12.73
2017-04-09T00:49:37.237Z,12.71
2017-04-09T00:50:47.611Z,12.7
2017-04-09T00:51:57.939Z,12.73
2017-04-09T00:53:08.276Z,12.59
2017-04-09T00:54:18.294Z,12.66
2017-04-09T00:55:28.615Z,12.59
2017-04-09T00:56:38.951Z,12.59
2017-04-09T00:57:48.979Z,12.61
2017-04-09T00:58:59.311Z,12.52
2017-04-09T01:00:09.352Z,12.58
2017-04-09T01:01:19.672Z,12.47
2017-04-09T01:02:29.711Z,12.43
2017-04-09T01:03:39.105Z,12.43
2017-04-09T01:04:49.500Z,12.43
2017-04-09T01:05:59.528Z,12.43
2017-04-09T01:07:09.873Z,12.47
2017-04-09T01:08:20.220Z,12.41
2017-04-09T01:09:30.583Z,12.34
2017-04-09T01:10:40.298Z,12.29
2017-04-09T01:11:50.312Z,12.38
2017-04-09T01:13:00.652Z,12.18
2017-04-09T01:14:10.987Z,12.16
2017-04-09T01:15:21.314Z,12.15
2017-04-09T01:16:31.641Z,12.23
2017-04-09T01:17:41.979Z,12.13
2017-04-09T01:18:52.334Z,12.13
2017-04-09T01:20:02.682Z,12.04
2017-04-09T01:21:12.689Z,12.03
2017-04-09T01:22:23.015Z,11.98
2017-04-09T01:23:33.026Z,12.04
2017-04-09T01:24:43.050Z,11.91
2017-04-09T01:25:53.372Z,11.94
2017-04-09T01:27:03.707Z,11.91
2017-04-09T01:28:14.042Z,12
2017-04-09T01:29:24.051Z,11.88
2017-04-09T01:30:34.393Z,11.98
2017-04-09T01:31:44.414Z,11.91
2017-04-09T01:32:54.756Z,11.94
2017-04-09T01:34:04.773Z,11.85
2017-04-09T01:35:15.119Z,11.81
2017-04-09T01:36:25.141Z,11.82
2017-04-09T01:37:35.153Z,11.78
2017-04-09T01:38:44.864Z,11.81
2017-04-09T01:39:54.945Z,11.75
2017-04-09T01:41:04.967Z,11.78
2017-04-09T01:42:15.329Z,11.71
2017-04-09T01:43:25.661Z,11.66
2017-04-09T01:44:35.997Z,11.68
2017-04-09T01:45:46.331Z,11.73
2017-04-09T01:46:56.343Z,11.68
2017-04-09T01:48:06.686Z,11.67
2017-04-09T01:49:16.700Z,11.6
2017-04-09T01:50:27.039Z,11.59
2017-04-09T01:51:37.378Z,11.61
2017-04-09T01:52:47.399Z,11.53
2017-04-09T01:53:57.734Z,11.51
2017-04-09T01:55:08.060Z,11.51
2017-04-09T01:56:18.387Z,11.53
2017-04-09T01:57:28.717Z,11.43
2017-04-09T01:58:39.046Z,11.51
2017-04-09T01:59:49.366Z,11.43
2017-04-09T02:00:59.722Z,11.45
2017-04-09T02:02:09.736Z,11.46
2017-04-09T02:03:19.749Z,11.41
2017-04-09T02:04:30.084Z,11.45
2017-04-09T02:05:40.100Z,11.42
2017-04-09T02:06:50.427Z,11.48
2017-04-09T02:08:00.797Z,11.43
2017-04-09T02:09:11.124Z,11.45
2017-04-09T02:10:21.502Z,11.45
2017-04-09T02:11:31.568Z,11.45
2017-04-09T02:12:41.914Z,11.56
2017-04-09T02:13:52.247Z,11.49
2017-04-09T02:15:02.267Z,11.56
2017-04-09T02:16:12.290Z,11.57
2017-04-09T02:17:22.631Z,11.56
2017-04-09T02:18:32.654Z,11.52
2017-04-09T02:19:42.669Z,11.46
2017-04-09T02:20:52.376Z,11.42
2017-04-09T02:22:02.710Z,11.48
2017-04-09T02:23:12.726Z,11.51
2017-04-09T02:24:22.747Z,11.43
2017-04-09T02:25:33.100Z,11.45
2017-04-09T02:26:43.125Z,11.43
2017-04-09T02:27:53.143Z,11.38
2017-04-09T02:29:03.475Z,11.34
2017-04-09T02:30:13.810Z,11.41
2017-04-09T02:31:23.523Z,11.38
2017-04-09T02:32:33.891Z,11.39
2017-04-09T02:33:43.923Z,11.38
2017-04-09T02:34:54.259Z,11.35
2017-04-09T02:36:04.284Z,11.38
2017-04-09T02:37:14.615Z,11.35
2017-04-09T02:38:24.953Z,11.31
2017-04-09T02:39:34.698Z,11.3
2017-04-09T02:40:45.036Z,11.26
2017-04-09T02:41:55.378Z,11.15
2017-04-09T02:43:05.407Z,11.24
2017-04-09T02:44:15.111Z,11.16
2017-04-09T02:45:25.137Z,11.26
2017-04-09T02:46:35.463Z,11.2
2017-04-09T02:47:45.822Z,11.28
2017-04-09T02:48:55.827Z,11.2
2017-04-09T02:50:06.160Z,11.23
2017-04-09T02:51:16.226Z,11.18
2017-04-09T02:52:26.557Z,11.16
2017-04-09T02:53:36.619Z,11.23
2017-04-09T02:54:46.642Z,11.16
2017-04-09T02:55:56.970Z,11.2
2017-04-09T02:57:07.000Z,11.27
2017-04-09T02:58:17.326Z,11.16
2017-04-09T02:59:27.655Z,11.08
2017-04-09T03:00:38.016Z,11.2
2017-04-09T03:01:48.051Z,11.09
2017-04-09T03:32:36.123Z,7.61
2017-04-09T03:33:46.445Z,7.54
2017-04-09T03:34:56.762Z,7.44
2017-04-09T03:36:07.132Z,7.48
2017-04-09T03:37:16.841Z,7.49
2017-04-09T03:38:26.852Z,7.59
2017-04-09T03:39:36.583Z,7.77
2017-04-09T03:40:46.598Z,7.98
2017-04-09T03:41:56.922Z,8.07
2017-04-09T03:43:07.284Z,8.17
2017-04-09T03:44:17.608Z,8.47
2017-04-09T03:45:27.942Z,8.49
2017-04-09T03:46:38.274Z,8.54
2017-04-09T03:47:48.280Z,8.71
2017-04-09T03:48:58.306Z,8.87
2017-04-09T03:50:08.639Z,8.98
2017-04-09T03:51:18.336Z,9.17
2017-04-09T03:52:28.668Z,9.14
2017-04-09T03:53:38.695Z,9.23
2017-04-09T03:54:49.027Z,9.39
2017-04-09T03:55:59.336Z,9.42
2017-04-09T03:57:09.669Z,9.52
2017-04-09T03:58:19.990Z,9.59
2017-04-09T03:59:30.306Z,9.63
2017-04-09T04:00:40.320Z,9.77
2017-04-09T04:01:50.645Z,9.7
2017-04-09T04:03:00.666Z,9.84
2017-04-09T04:04:11.011Z,9.84
2017-04-09T04:05:21.340Z,9.92
2017-04-09T04:06:31.674Z,9.9
2017-04-09T04:07:42.006Z,9.95
2017-04-09T04:08:52.345Z,10.05
2017-04-09T04:10:02.673Z,10.13
2017-04-09T04:11:13.004Z,10.15
2017-04-09T04:12:23.337Z,10.1
2017-04-09T04:13:33.662Z,10.1
2017-04-09T04:14:43.989Z,10.15
2017-04-09T04:15:54.311Z,10.17
2017-04-09T04:17:04.016Z,10.1
2017-04-09T04:18:14.365Z,10.13
2017-04-09T04:19:24.701Z,10.1
2017-04-09T04:20:34.718Z,10.1
2017-04-09T04:21:45.040Z,10.1
2017-04-09T04:22:54.746Z,10.11
2017-04-09T04:24:04.788Z,10.17
2017-04-09T04:25:15.125Z,10.18
2017-04-09T04:26:25.457Z,10.25
2017-04-09T04:27:35.779Z,10.23
2017-04-09T04:28:46.096Z,10.18
2017-04-09T04:29:56.123Z,10.29
2017-04-09T04:31:06.439Z,10.25
2017-04-09T04:32:16.764Z,10.36
2017-04-09T04:33:26.771Z,10.52
2017-04-09T04:34:37.092Z,10.79
2017-04-09T04:35:47.100Z,10.87
2017-04-09T04:36:57.444Z,11.12
2017-04-09T04:38:07.776Z,11.21
2017-04-09T04:39:17.774Z,11.42
2017-04-09T04:40:27.790Z,11.57
2017-04-09T04:41:37.515Z,11.79
2017-04-09T04:42:47.857Z,12
2017-04-09T04:43:58.192Z,12.13
2017-04-09T04:45:08.526Z,12.31
2017-04-09T04:46:18.876Z,12.48
2017-04-09T04:47:29.204Z,12.58
2017-04-09T04:48:39.239Z,12.8
2017-04-09T04:49:49.625Z,12.91
2017-04-09T04:50:59.952Z,13.01
2017-04-09T04:52:09.997Z,13.16
2017-04-09T04:53:20.025Z,13.31
2017-04-09T04:54:30.414Z,13.51
2017-04-09T04:55:40.448Z,13.6
2017-04-09T04:56:50.793Z,13.6
2017-04-09T04:58:01.137Z,13.76
2017-04-09T04:59:11.157Z,13.87
2017-04-09T05:00:21.187Z,13.99
2017-04-09T05:01:31.507Z,14.19
2017-04-09T05:02:41.851Z,14.31
2017-04-09T05:03:52.176Z,14.41
2017-04-09T05:05:02.495Z,14.59
2017-04-09T05:06:12.821Z,14.59
2017-04-09T05:07:23.096Z,14.74
2017-04-09T05:08:33.117Z,14.85
2017-04-09T05:09:43.460Z,14.93
2017-04-09T05:10:53.792Z,15.08
2017-04-09T05:12:04.123Z,15.12
2017-04-09T05:13:14.458Z,15.26
2017-04-09T05:14:24.164Z,15.31
2017-04-09T05:15:34.186Z,15.44
2017-04-09T05:16:44.517Z,15.63
2017-04-09T05:17:54.552Z,15.81
2017-04-09T05:19:04.570Z,15.93
2017-04-09T05:20:14.920Z,16.13
2017-04-09T05:21:25.253Z,16.33
2017-04-09T05:22:35.279Z,16.42
2017-04-09T05:23:45.619Z,16.36
2017-04-09T05:24:55.953Z,16.11
2017-04-09T05:26:06.284Z,15.83
2017-04-09T05:27:16.626Z,15.6
2017-04-09T05:28:26.327Z,15.43
2017-04-09T05:29:36.369Z,15.33
2017-04-09T05:30:46.706Z,15.34
2017-04-09T05:31:56.738Z,15.19
2017-04-09T05:33:06.753Z,15.1
2017-04-09T05:34:16.777Z,15.08
2017-04-09T05:35:27.104Z,15.26
2017-04-09T05:36:37.459Z,15.44
2017-04-09T05:37:47.797Z,15.68
2017-04-09T05:38:57.817Z,15.98
2017-04-09T05:40:08.088Z,16.16
2017-04-09T05:41:17.803Z,15.98
2017-04-09T05:42:27.834Z,15.67
2017-04-09T05:43:38.177Z,15.59
2017-04-09T05:44:48.226Z,15.44
2017-04-09T05:45:58.564Z,15.44
2017-04-09T05:47:08.617Z,15.44
2017-04-09T05:48:18.639Z,15.44
2017-04-09T05:49:28.340Z,15.59
2017-04-09T05:50:38.670Z,15.8
2017-04-09T05:58:38.035Z,15.8
2017-04-09T05:59:48.057Z,15.96
2017-04-09T06:00:58.395Z,15.95
2017-04-09T06:02:08.732Z,15.96
2017-04-09T06:03:19.082Z,15.83
2017-04-09T06:04:29.100Z,15.89
2017-04-09T06:05:39.432Z,15.91
2017-04-09T06:06:49.163Z,16.06
2017-04-09T06:07:59.530Z,16.08
2017-04-09T06:09:09.854Z,16.14
2017-04-09T06:10:19.598Z,16.16
2017-04-09T06:11:29.936Z,16.06
2017-04-09T06:12:40.273Z,15.96
2017-04-09T06:13:50.612Z,15.88
2017-04-09T06:15:00.968Z,15.95
2017-04-09T06:16:11.351Z,15.96
2017-04-09T06:17:21.683Z,15.88
2017-04-09T06:18:32.015Z,15.83
2017-04-09T06:19:42.066Z,15.93
2017-04-09T06:20:52.393Z,15.93
2017-04-09T06:22:02.727Z,15.86
2017-04-09T06:23:13.062Z,15.95
2017-04-09T06:24:23.412Z,15.84
2017-04-09T06:25:33.747Z,15.99
2017-04-09T06:26:44.068Z,15.86
2017-04-09T06:27:54.090Z,15.84
2017-04-09T06:29:04.418Z,15.84
2017-04-09T06:30:14.444Z,15.98
2017-04-09T06:31:24.769Z,15.95
2017-04-09T06:32:34.799Z,15.95
2017-04-09T06:33:45.138Z,15.92
2017-04-09T06:34:55.473Z,16
2017-04-09T06:36:05.487Z,15.99
2017-04-09T06:37:15.818Z,16.06
2017-04-09T06:38:26.164Z,16.08
2017-04-09T06:39:36.537Z,16.16
2017-04-09T06:40:46.554Z,16.08
2017-04-09T06:41:56.585Z,16.22
2017-04-09T06:43:06.911Z,16.21
2017-04-09T06:44:17.266Z,16.3
2017-04-09T06:45:27.600Z,16.34
2017-04-09T06:46:37.634Z,16.3
2017-04-09T06:47:47.961Z,16.44
2017-04-09T06:48:58.296Z,16.42
2017-04-09T06:50:08.630Z,16.47
2017-04-09T06:51:18.713Z,16.58
2017-04-09T06:52:28.738Z,16.54
2017-04-09T06:53:38.749Z,16.54
2017-04-09T06:54:49.091Z,16.54
2017-04-09T06:55:59.115Z,16.59
2017-04-09T06:57:09.143Z,16.65
2017-04-09T06:58:19.166Z,16.73
2017-04-09T06:59:29.511Z,16.7
2017-04-09T07:00:39.542Z,16.81
2017-04-09T07:01:49.874Z,16.95
2017-04-09T07:03:00.201Z,16.97
2017-04-09T07:04:10.542Z,16.99
2017-04-09T07:05:20.888Z,17.02
2017-04-09T07:06:31.230Z,17.12
2017-04-09T07:07:41.569Z,17.1
2017-04-09T07:08:51.287Z,16.99
2017-04-09T07:10:01.642Z,17.03
2017-04-09T07:11:11.692Z,17.13
2017-04-09T07:12:21.721Z,17.06
2017-04-09T07:13:32.062Z,17.21
2017-04-09T07:14:42.423Z,17.18
2017-04-09T07:15:52.449Z,17.22
2017-04-09T07:17:02.191Z,17.18
2017-04-09T07:18:12.528Z,17.31
2017-04-09T07:19:22.868Z,17.35
2017-04-09T07:20:33.221Z,17.32
2017-04-09T07:21:43.244Z,17.42
2017-04-09T07:22:53.281Z,17.43
2017-04-09T07:24:03.641Z,17.38
2017-04-09T07:25:14.006Z,17.47
2017-04-09T07:26:24.344Z,17.54
2017-04-09T07:27:34.407Z,17.5
2017-04-09T07:28:44.439Z,17.66
2017-04-09T07:29:54.777Z,17.74
2017-04-09T07:31:04.794Z,17.74
2017-04-09T07:32:15.132Z,17.79
2017-04-09T07:33:25.456Z,17.84
2017-04-09T07:34:35.178Z,17.79
2017-04-09T07:35:45.509Z,17.84
2017-04-09T07:36:55.843Z,17.92
2017-04-09T07:38:05.872Z,18.01
2017-04-09T07:39:16.206Z,18.01
2017-04-09T07:40:26.550Z,18.02
2017-04-09T07:41:36.578Z,18.06
2017-04-09T07:42:46.939Z,18.06
2017-04-09T07:43:56.967Z,18.08
2017-04-09T07:45:07.328Z,18.21
2017-04-09T07:46:17.035Z,18.14
2017-04-09T07:47:27.376Z,18.21
2017-04-09T07:48:37.712Z,18.29
2017-04-09T07:49:47.744Z,18.35
2017-04-09T07:50:58.087Z,18.39
2017-04-09T07:52:08.438Z,18.38
2017-04-09T07:53:18.705Z,18.47
2017-04-09T07:54:29.047Z,18.54
2017-04-09T07:55:39.391Z,18.54
2017-04-09T07:56:49.111Z,18.76
2017-04-09T07:57:59.450Z,18.74
2017-04-09T07:59:09.529Z,18.91
2017-04-09T08:00:19.540Z,18.9
2017-04-09T08:01:29.249Z,18.93
2017-04-09T08:02:39.611Z,18.97
2017-04-09T08:03:49.640Z,19.07
2017-04-09T08:05:00.003Z,19.17
2017-04-09T08:06:10.325Z,19.24
2017-04-09T08:07:20.706Z,19.32
2017-04-09T08:08:31.043Z,19.45
2017-04-09T08:09:41.079Z,19.49
2017-04-09T08:10:51.102Z,19.63
2017-04-09T08:12:01.441Z,19.7
2017-04-09T08:13:11.849Z,19.68
2017-04-09T08:14:21.881Z,19.61
2017-04-09T08:15:32.213Z,19.57
2017-04-09T08:16:42.287Z,19.63
2017-04-09T08:17:52.330Z,19.55
2017-04-09T08:19:02.683Z,19.64
2017-04-09T08:20:13.255Z,19.64
2017-04-09T08:21:23.587Z,19.74
2017-04-09T08:22:33.925Z,19.86
2017-04-09T08:23:43.953Z,19.95
2017-04-09T08:24:54.301Z,19.98
2017-04-09T08:26:04.369Z,19.98
2017-04-09T08:27:14.397Z,19.98
2017-04-09T08:28:24.422Z,19.98
2017-04-09T08:29:34.757Z,20.01
2017-04-09T08:30:45.087Z,20.16
2017-04-09T08:31:55.414Z,20.16
2017-04-09T08:33:05.769Z,20.18
2017-04-09T08:34:16.119Z,20.27
2017-04-09T08:35:26.463Z,20.38
2017-04-09T08:36:36.803Z,20.44
2017-04-09T08:37:46.824Z,20.41
2017-04-09T08:38:57.164Z,20.64
2017-04-09T08:40:07.197Z,20.72
2017-04-09T08:41:17.546Z,20.79
2017-04-09T08:42:27.271Z,20.82
2017-04-09T08:43:37.638Z,20.91
2017-04-09T08:44:47.983Z,20.88
2017-04-09T08:45:58.314Z,20.91
2017-04-09T08:47:08.339Z,20.93
2017-04-09T08:48:18.061Z,20.94
2017-04-09T08:49:27.794Z,20.85
2017-04-09T08:50:38.141Z,20.85
2017-04-09T08:51:48.491Z,20.94
2017-04-09T08:52:58.510Z,20.91
2017-04-09T08:54:08.864Z,20.93
2017-04-09T08:55:19.207Z,20.91
2017-04-09T08:56:29.565Z,21
2017-04-09T08:57:39.605Z,21.03
2017-04-09T08:58:49.641Z,21.11
2017-04-09T09:00:00.012Z,21.19
2017-04-09T09:01:10.338Z,21.23
2017-04-09T09:02:20.066Z,21.19
2017-04-09T09:03:29.788Z,21.23
2017-04-09T09:04:40.151Z,21.4
2017-04-09T09:05:49.877Z,21.53
2017-04-09T09:07:00.217Z,21.52
2017-04-09T09:08:10.574Z,21.67
2017-04-09T09:09:20.904Z,21.73
2017-04-09T09:10:31.245Z,21.74
2017-04-09T09:11:41.572Z,21.85
2017-04-09T09:12:51.597Z,21.94
2017-04-09T09:14:01.661Z,21.94
2017-04-09T09:15:11.693Z,22.04
2017-04-09T09:16:22.042Z,22.09
2017-04-09T09:17:32.076Z,22.16
2017-04-09T09:18:42.410Z,22.22
2017-04-09T09:19:52.439Z,22.24
2017-04-09T09:21:02.484Z,22.34
2017-04-09T09:22:12.836Z,22.36
2017-04-09T09:23:23.186Z,22.44
2017-04-09T09:24:33.518Z,22.39
2017-04-09T09:25:43.543Z,22.51
2017-04-09T09:26:53.595Z,22.69
2017-04-09T09:28:03.629Z,22.63
2017-04-09T09:29:13.648Z,22.75
2017-04-09T09:30:23.684Z,22.86
2017-04-09T09:31:33.714Z,22.89
2017-04-09T09:32:44.048Z,22.97
2017-04-09T09:33:54.402Z,22.94
2017-04-09T09:35:04.745Z,22.97
2017-04-09T09:36:14.769Z,22.97
2017-04-09T09:37:24.490Z,22.96
2017-04-09T09:38:34.835Z,23.15
2017-04-09T09:39:45.197Z,23.1
2017-04-09T09:40:55.223Z,23.07
2017-04-09T09:42:05.588Z,23.03
2017-04-09T09:43:15.931Z,23.1
2017-04-09T09:44:25.963Z,23.04
2017-04-09T09:45:35.986Z,23.07
2017-04-09T09:46:45.431Z,23.09
2017-04-09T09:47:55.486Z,23.07
2017-04-09T09:49:05.839Z,23.06
2017-04-09T09:50:15.570Z,23.09
2017-04-09T09:51:25.940Z,23.06
2017-04-09T09:52:35.970Z,23.09
2017-04-09T09:53:45.996Z,23.09
2017-04-09T09:54:56.025Z,23.15
2017-04-09T09:56:06.362Z,23.15
2017-04-09T09:57:16.383Z,23.15
2017-04-09T09:58:26.145Z,23.14
2017-04-09T09:59:35.858Z,23.18
2017-04-09T10:00:46.199Z,23.18
2017-04-09T10:01:56.234Z,23.22
2017-04-09T10:03:06.497Z,23.37
2017-04-09T10:04:16.494Z,23.45
2017-04-09T10:05:26.521Z,23.48
2017-04-09T10:06:36.864Z,23.63
2017-04-09T10:07:47.205Z,23.71
2017-04-09T10:08:57.538Z,23.79
2017-04-09T10:10:07.874Z,23.79
2017-04-09T10:11:18.220Z,23.84
2017-04-09T10:12:28.252Z,23.89
2017-04-09T10:13:38.602Z,23.97
2017-04-09T10:14:48.951Z,24.09
2017-04-09T10:15:58.994Z,24.15
2017-04-09T10:17:09.344Z,24.29
2017-04-09T10:18:19.701Z,24.33
2017-04-09T10:19:30.046Z,24.44
2017-04-09T10:20:40.091Z,24.42
2017-04-09T10:21:50.112Z,24.46
2017-04-09T10:23:00.681Z,24.55
2017-04-09T10:24:11.038Z,24.63
2017-04-09T10:25:21.391Z,24.67
2017-04-09T10:26:31.421Z,24.75
2017-04-09T10:27:41.813Z,24.83
2017-04-09T10:28:52.163Z,24.89
2017-04-09T10:30:01.890Z,25.01
2017-04-09T10:31:12.236Z,25.05
2017-04-09T10:32:22.255Z,24.94
2017-04-09T10:33:32.277Z,24.9
2017-04-09T10:34:42.313Z,24.67
2017-04-09T10:35:52.683Z,24.44
2017-04-09T10:37:03.052Z,24.3
2017-04-09T10:38:13.397Z,24.08
2017-04-09T10:39:23.731Z,23.79
2017-04-09T10:40:34.081Z,23.53
2017-04-09T10:41:44.423Z,23.18
2017-04-09T10:42:54.132Z,23.35
2017-04-09T10:44:04.453Z,23.78
2017-04-09T10:45:14.804Z,23.47
2017-04-09T10:46:25.154Z,23.12
2017-04-09T10:47:35.503Z,23.01
2017-04-09T10:48:45.838Z,23.07
2017-04-09T10:49:56.186Z,23.53
2017-04-09T10:51:06.517Z,23.87
2017-04-09T10:52:16.528Z,24.03
2017-04-09T10:53:26.560Z,24.29
2017-04-09T10:54:36.891Z,24.39
2017-04-09T10:55:47.230Z,24.44
2017-04-09T10:56:57.565Z,24.51
2017-04-09T10:58:07.928Z,24.63
2017-04-09T10:59:17.989Z,24.78
2017-04-09T11:00:28.026Z,24.74
2017-04-09T11:01:38.063Z,24.83
2017-04-09T11:02:48.427Z,24.78
2017-04-09T11:03:58.789Z,24.87
2017-04-09T11:05:08.818Z,24.92
2017-04-09T11:06:18.560Z,24.86
2017-04-09T11:07:28.285Z,24.86
2017-04-09T11:08:38.633Z,24.96
2017-04-09T11:09:48.655Z,25.01
2017-04-09T11:10:58.677Z,25.02
2017-04-09T11:12:08.721Z,24.96
2017-04-09T11:13:19.099Z,25.02
2017-04-09T11:14:29.432Z,25.19
2017-04-09T11:15:39.468Z,25.27
2017-04-09T11:16:49.804Z,25.32
2017-04-09T11:18:00.143Z,25.44
2017-04-09T11:19:10.164Z,25.44
2017-04-09T11:20:19.896Z,25.42
2017-04-09T11:21:29.938Z,25.48
2017-04-09T11:22:40.263Z,25.52
2017-04-09T11:23:50.644Z,25.62
2017-04-09T11:25:00.974Z,25.62
2017-04-09T11:26:11.002Z,25.52
2017-04-09T11:27:21.340Z,25.6
2017-04-09T11:28:31.697Z,25.6
2017-04-09T11:29:41.749Z,25.57
2017-04-09T11:30:51.485Z,25.67
2017-04-09T11:32:01.528Z,25.67
2017-04-09T11:33:11.558Z,25.74
2017-04-09T11:34:21.918Z,25.57
2017-04-09T11:35:32.293Z,25.52
2017-04-09T11:36:42.630Z,25.3
2017-04-09T11:37:52.409Z,25.2
2017-04-09T11:39:02.753Z,25.19
2017-04-09T11:40:12.480Z,24.75
2017-04-09T11:41:22.814Z,24.94
2017-04-09T11:42:33.169Z,25.26
2017-04-09T11:43:43.197Z,25.44
2017-04-09T11:44:53.224Z,24.87
2017-04-09T11:46:03.573Z,24.46
2017-04-09T11:47:13.924Z,24.03
2017-04-09T11:48:24.278Z,23.77
2017-04-09T11:49:34.622Z,23.48
2017-04-09T11:50:44.950Z,23.25
2017-04-09T11:51:54.988Z,23.07
2017-04-09T11:53:05.329Z,22.92
2017-04-09T11:54:15.667Z,22.78
2017-04-09T11:55:26.010Z,22.69
2017-04-09T11:56:36.040Z,22.71
2017-04-09T11:57:46.387Z,22.73
2017-04-09T11:58:56.732Z,23.18
2017-04-09T12:00:07.064Z,23.53
2017-04-09T12:01:17.096Z,23.87
2017-04-09T12:02:27.454Z,24.29
2017-04-09T12:03:37.489Z,24.59
2017-04-09T12:04:47.843Z,24.74
2017-04-09T12:05:57.559Z,24.8
2017-04-09T12:07:07.928Z,24.66
2017-04-09T12:08:17.966Z,24.82
2017-04-09T12:09:28.322Z,24.83
2017-04-09T12:10:38.676Z,24.78
2017-04-09T12:11:49.008Z,24.71
2017-04-09T12:12:59.338Z,24.44
2017-04-09T12:14:09.373Z,24.29
2017-04-09T12:15:19.773Z,24.17
2017-04-09T12:16:30.108Z,24.26
2017-04-09T12:17:40.451Z,24.29
2017-04-09T12:18:50.812Z,24.26
2017-04-09T12:20:00.208Z,24.3
2017-04-09T12:21:10.550Z,24.54
2017-04-09T12:22:20.906Z,24.58
2017-04-09T12:23:31.244Z,24.42
2017-04-09T12:24:41.591Z,24.46
2017-04-09T12:25:51.638Z,24.22
2017-04-09T12:27:01.973Z,24.04
2017-04-09T12:28:11.702Z,24
2017-04-09T12:29:22.027Z,23.99
2017-04-09T12:30:32.395Z,24.03
2017-04-09T12:31:42.741Z,24.46
2017-04-09T12:32:52.782Z,24.82
2017-04-09T12:34:03.139Z,25.22
2017-04-09T12:35:13.496Z,25.3
2017-04-09T12:36:23.840Z,25.47
2017-04-09T12:37:34.174Z,25.63
2017-04-09T12:38:44.518Z,25.37
2017-04-09T12:39:54.546Z,24.86
2017-04-09T12:41:04.575Z,24.63
2017-04-09T12:42:14.612Z,24.36
2017-04-09T12:43:24.629Z,24.18
2017-04-09T12:44:34.975Z,24.07
2017-04-09T12:45:45.330Z,23.85
2017-04-09T12:46:55.373Z,23.59
2017-04-09T12:48:05.724Z,23.55
2017-04-09T12:49:15.762Z,23.74
2017-04-09T12:50:26.100Z,23.57
2017-04-09T12:51:36.129Z,23.55
2017-04-09T12:52:46.484Z,23.53
2017-04-09T12:53:56.843Z,23.81
2017-04-09T12:55:07.181Z,24.08
2017-04-09T12:56:17.531Z,24.39
2017-04-09T12:57:27.870Z,24.44
2017-04-09T12:58:38.212Z,24.69
2017-04-09T12:59:48.567Z,24.8
2017-04-09T13:00:58.611Z,24.82
2017-04-09T13:02:08.942Z,24.9
2017-04-09T13:03:18.674Z,25
2017-04-09T13:04:29.023Z,25.02
2017-04-09T13:05:39.113Z,25.11
2017-04-09T13:06:49.147Z,25.22
2017-04-09T13:07:58.880Z,25.09
2017-04-09T13:09:08.916Z,25.23
2017-04-09T13:10:18.959Z,25.2
2017-04-09T13:11:29.336Z,25.23
2017-04-09T13:12:39.058Z,25.22
2017-04-09T13:13:49.428Z,25.29
2017-04-09T13:14:59.800Z,25.33
2017-04-09T13:16:10.152Z,25.2
2017-04-09T13:17:20.492Z,25.17
2017-04-09T13:18:30.869Z,25.01
2017-04-09T13:19:41.276Z,25.02
2017-04-09T13:20:51.609Z,25
2017-04-09T13:22:01.960Z,25.08
2017-04-09T13:23:12.289Z,25.14
2017-04-09T13:24:22.626Z,25.12
2017-04-09T13:25:32.684Z,25.3
2017-04-09T13:26:43.038Z,25.29
2017-04-09T13:27:53.378Z,25.39
2017-04-09T13:29:03.723Z,25.44
2017-04-09T13:30:14.064Z,25.45
2017-04-09T13:31:24.414Z,25.47
2017-04-09T13:32:34.751Z,25.57
2017-04-09T13:33:44.791Z,25.59
2017-04-09T13:34:55.140Z,25.7
2017-04-09T13:36:05.206Z,25.56
2017-04-09T13:37:15.245Z,25.56
2017-04-09T13:38:25.290Z,25.42
2017-04-09T13:39:35.014Z,25.38
2017-04-09T13:40:45.358Z,25.34
2017-04-09T13:41:55.699Z,25.45
2017-04-09T13:43:05.730Z,25.3
2017-04-09T13:44:16.075Z,25.3
2017-04-09T13:45:26.420Z,25.27
2017-04-09T13:46:36.807Z,25.26
2017-04-09T13:47:47.147Z,25.11
2017-04-09T13:48:56.889Z,25.19
2017-04-09T13:50:07.212Z,25.11
2017-04-09T13:51:17.278Z,25.11
2017-04-09T13:52:27.370Z,25.05
2017-04-09T13:53:37.711Z,25.04
2017-04-09T13:54:48.042Z,25.04
2017-04-09T13:55:58.049Z,25
2017-04-09T13:57:08.397Z,25.04
2017-04-09T13:58:18.739Z,25.09
2017-04-09T13:59:28.790Z,25.01
2017-04-09T14:00:39.378Z,24.97
2017-04-09T14:01:49.718Z,24.97
2017-04-09T14:03:00.061Z,24.87
2017-04-09T14:04:10.096Z,24.97
2017-04-09T14:05:20.138Z,24.83
2017-04-09T14:06:30.179Z,24.87
2017-04-09T14:07:40.239Z,24.89
2017-04-09T14:08:50.260Z,24.87
2017-04-09T14:10:00.287Z,24.89
2017-04-09T14:11:10.693Z,24.9
2017-04-09T14:12:21.048Z,24.8
2017-04-09T14:13:31.397Z,24.78
2017-04-09T14:14:41.731Z,24.8
2017-04-09T14:15:51.770Z,24.67
2017-04-09T14:17:02.127Z,24.77
2017-04-09T14:18:12.473Z,24.71
2017-04-09T14:19:22.548Z,24.71
2017-04-09T14:20:32.889Z,24.71
2017-04-09T14:21:43.214Z,24.71
2017-04-09T14:22:53.580Z,24.74
2017-04-09T14:24:03.927Z,24.74
2017-04-09T14:25:13.958Z,24.67
2017-04-09T14:26:24.320Z,24.66
2017-04-09T14:27:34.728Z,24.71
2017-04-09T14:28:45.084Z,24.82
2017-04-09T14:29:55.097Z,24.78
2017-04-09T14:31:05.117Z,24.8
2017-04-09T14:32:15.466Z,24.74
2017-04-09T14:33:25.186Z,24.77
2017-04-09T14:34:35.212Z,24.71
2017-04-09T14:35:45.260Z,24.64
2017-04-09T14:36:55.306Z,24.63
2017-04-09T14:38:05.331Z,24.58
2017-04-09T14:39:15.695Z,24.56
2017-04-09T14:40:26.039Z,24.44
2017-04-09T14:41:36.377Z,24.48
2017-04-09T14:42:46.087Z,24.42
2017-04-09T14:43:56.420Z,24.33
2017-04-09T14:45:06.759Z,24.34
2017-04-09T14:46:16.824Z,24.37
2017-04-09T14:47:26.855Z,24.36
2017-04-09T14:48:37.193Z,24.29
2017-04-09T14:49:47.219Z,24.29
2017-04-09T14:50:57.257Z,24.15
2017-04-09T14:52:07.311Z,24.15
2017-04-09T14:53:17.337Z,24.17
2017-04-09T14:54:27.378Z,24.14
2017-04-09T14:55:37.730Z,24.14
2017-04-09T14:56:48.086Z,24.18
2017-04-09T14:57:58.444Z,24.03
2017-04-09T14:59:08.796Z,24.03
2017-04-09T15:00:19.146Z,23.99
2017-04-09T15:01:29.487Z,23.93
2017-04-09T15:02:39.838Z,23.9
2017-04-09T15:03:49.896Z,24.03
2017-04-09T15:05:00.241Z,23.96
2017-04-09T15:06:10.290Z,23.97
2017-04-09T15:07:20.625Z,23.85
2017-04-09T15:08:30.663Z,23.96
2017-04-09T15:09:40.689Z,23.9
2017-04-09T15:10:50.723Z,23.9
2017-04-09T15:12:01.089Z,23.82
2017-04-09T15:13:11.106Z,23.82
2017-04-09T15:14:21.475Z,23.78
2017-04-09T15:15:31.837Z,23.78
2017-04-09T15:16:41.860Z,23.77
2017-04-09T15:17:51.581Z,23.78
2017-04-09T15:19:01.932Z,23.77
2017-04-09T15:20:11.964Z,23.79
2017-04-09T15:21:22.318Z,23.81
2017-04-09T15:22:32.667Z,23.81
2017-04-09T15:23:43.021Z,23.81
2017-04-09T15:24:53.386Z,23.77
2017-04-09T15:26:03.728Z,23.75
2017-04-09T15:27:13.775Z,23.77
2017-04-09T15:28:23.828Z,23.63
2017-04-09T15:29:33.879Z,23.67
2017-04-09T15:30:43.927Z,23.66
2017-04-09T15:31:54.281Z,23.62
2017-04-09T15:33:04.634Z,23.63
2017-04-09T15:34:14.990Z,23.64
2017-04-09T15:35:25.021Z,23.66
2017-04-09T15:36:35.061Z,23.66
2017-04-09T15:37:45.444Z,23.66
2017-04-09T15:38:55.803Z,23.64
2017-04-09T15:40:06.148Z,23.56
2017-04-09T15:41:16.490Z,23.45
2017-04-09T15:42:26.830Z,23.35
2017-04-09T15:43:36.860Z,23.34
2017-04-09T15:44:46.885Z,23.22